createdAt,value
2022-11-04T00:04:29.259Z,13.90
2022-11-04T00:09:31.389Z,13.90
2022-11-04T00:14:34.920Z,13.90
2022-11-04T00:19:38.411Z,13.90
2022-11-04T00:24:40.625Z,13.80
2022-11-04T00:29:42.752Z,13.80
2022-11-04T00:34:46.347Z,13.80
2022-11-04T00:39:48.441Z,13.80
2022-11-04T00:44:50.595Z,13.80
2022-11-04T00:49:54.481Z,13.80
2022-11-04T00:54:56.561Z,13.90
2022-11-04T00:59:58.676Z,13.80
2022-11-04T01:05:02.217Z,13.80
2022-11-04T01:10:04.982Z,13.80
2022-11-04T01:15:07.805Z,13.90
2022-11-04T01:20:12.260Z,13.90
2022-11-04T01:25:14.596Z,13.90
2022-11-04T01:30:16.837Z,13.90
2022-11-04T01:35:20.341Z,13.90
2022-11-04T01:40:22.487Z,13.90
2022-11-04T01:45:24.596Z,13.90
2022-11-04T01:50:30.832Z,13.80
2022-11-04T01:55:35.753Z,13.90
2022-11-04T02:00:39.495Z,13.80
2022-11-04T02:05:44.094Z,13.80
2022-11-04T02:10:51.589Z,13.80
2022-11-04T02:15:58.805Z,13.80
2022-11-04T02:21:27.440Z,13.90
2022-11-04T02:27:07.140Z,13.90
2022-11-04T02:32:18.620Z,13.90
2022-11-04T02:37:31.655Z,13.80
2022-11-04T02:42:41.810Z,13.80
2022-11-04T02:47:48.919Z,13.70
2022-11-04T02:52:58.655Z,13.60
2022-11-04T02:58:05.510Z,13.60
2022-11-04T03:03:13.961Z,13.60
2022-11-04T03:08:19.622Z,13.50
2022-11-04T03:13:29.052Z,13.50
2022-11-04T03:18:42.431Z,13.40
2022-11-04T03:23:44.651Z,13.40
2022-11-04T03:28:55.940Z,13.40
2022-11-04T03:33:59.483Z,13.40
2022-11-04T03:39:01.727Z,13.40
2022-11-04T03:44:04.118Z,13.40
2022-11-04T03:49:08.225Z,13.30
2022-11-04T03:54:10.493Z,13.30
2022-11-04T03:59:31.328Z,13.30
2022-11-04T04:04:38.494Z,13.20
2022-11-04T04:09:43.789Z,13.20
2022-11-04T04:14:51.580Z,13.10
2022-11-04T04:19:58.792Z,13.10
2022-11-04T04:25:03.145Z,13.00
2022-11-04T04:30:08.400Z,12.90
2022-11-04T04:35:12.276Z,12.80
2022-11-04T04:40:23.888Z,12.80
2022-11-04T04:45:33.265Z,12.80
2022-11-04T04:50:40.147Z,12.90
2022-11-04T04:55:42.285Z,12.90
2022-11-04T05:00:44.437Z,12.90
2022-11-04T05:05:47.968Z,12.90
2022-11-04T05:10:50.076Z,13.00
2022-11-04T05:15:52.480Z,13.00
2022-11-04T05:20:56.048Z,13.10
2022-11-04T05:25:58.958Z,13.10
2022-11-04T05:31:03.516Z,13.10
2022-11-04T05:36:12.064Z,13.10
2022-11-04T05:41:14.148Z,13.10
2022-11-04T05:46:16.292Z,13.10
2022-11-04T05:51:22.208Z,13.00
2022-11-04T05:56:30.867Z,13.00
2022-11-04T06:01:35.429Z,12.90
2022-11-04T06:06:38.945Z,12.90
2022-11-04T06:11:41.164Z,12.90
2022-11-04T06:16:43.995Z,12.90
2022-11-04T06:22:06.137Z,12.90
2022-11-04T06:27:09.298Z,12.90
2022-11-04T06:32:13.846Z,12.90
2022-11-04T06:37:17.527Z,12.90
2022-11-04T06:42:19.805Z,12.80
2022-11-04T06:47:24.778Z,12.80
2022-11-04T06:52:28.928Z,12.80
2022-11-04T06:57:31.081Z,12.70
2022-11-04T07:02:33.383Z,12.70
2022-11-04T07:07:40.301Z,12.80
2022-11-04T07:12:45.587Z,12.90
2022-11-04T07:17:47.651Z,13.00
2022-11-04T07:23:03.239Z,13.30
2022-11-04T07:28:08.958Z,13.80
2022-11-04T07:33:11.385Z,14.30
2022-11-04T07:38:14.993Z,14.50
2022-11-04T07:43:17.129Z,14.60
2022-11-04T07:48:19.272Z,14.60
2022-11-04T07:53:23.125Z,14.50
2022-11-04T07:58:25.592Z,14.40
2022-11-04T08:03:27.818Z,14.60
2022-11-04T08:08:32.219Z,15.00
2022-11-04T08:13:36.960Z,15.30
2022-11-04T08:19:06.677Z,15.40
2022-11-04T08:24:10.250Z,15.70
2022-11-04T08:29:12.420Z,16.40
2022-11-04T08:34:14.787Z,17.20
2022-11-04T08:39:18.747Z,17.90
2022-11-04T08:44:21.482Z,18.50
2022-11-04T08:49:23.768Z,18.90
2022-11-04T08:54:27.909Z,19.20
2022-11-04T08:59:30.266Z,19.20
2022-11-04T09:04:32.511Z,18.90
2022-11-04T09:09:36.133Z,18.40
2022-11-04T09:14:38.319Z,17.80
2022-11-04T09:20:09.093Z,17.40
2022-11-04T09:25:12.799Z,17.10
2022-11-04T09:30:15.275Z,17.10
2022-11-04T09:35:17.589Z,17.20
2022-11-04T09:40:24.547Z,17.50
2022-11-04T09:45:29.777Z,17.80
2022-11-04T09:50:37.116Z,18.20
2022-11-04T09:56:10.598Z,18.70
2022-11-04T10:01:24.669Z,19.20
2022-11-04T10:06:35.821Z,19.50
2022-11-04T10:12:06.241Z,19.60
2022-11-04T10:17:25.298Z,19.70
2022-11-04T10:22:32.741Z,19.80
2022-11-04T10:27:39.976Z,19.90
2022-11-04T10:32:46.395Z,20.00
2022-11-04T10:38:27.180Z,20.00
2022-11-04T10:43:34.904Z,19.70
2022-11-04T10:48:54.948Z,19.30
2022-11-04T10:53:59.515Z,19.10
2022-11-04T10:59:22.356Z,19.20
2022-11-04T11:04:28.337Z,19.60
2022-11-04T11:09:32.945Z,20.10
2022-11-04T11:14:38.326Z,20.70
2022-11-04T11:19:50.152Z,21.10
2022-11-04T11:25:12.618Z,21.10
2022-11-04T11:30:28.620Z,20.90
2022-11-04T11:35:35.377Z,20.60
2022-11-04T11:40:52.114Z,20.40
2022-11-04T11:46:05.628Z,20.10
2022-11-04T11:51:08.448Z,19.60
2022-11-04T11:56:18.394Z,19.40
2022-11-04T12:01:28.475Z,19.40
2022-11-04T12:12:21.357Z,19.80
2022-11-04T12:17:42.679Z,20.00
2022-11-04T12:23:17.796Z,20.10
2022-11-04T12:28:29.579Z,20.40
2022-11-04T12:33:40.408Z,20.50
2022-11-04T12:39:10.154Z,20.50
2022-11-04T12:44:23.471Z,20.80
2022-11-04T12:49:49.310Z,21.20
2022-11-04T12:55:26.161Z,21.60
2022-11-04T13:00:32.060Z,21.90
2022-11-04T13:05:42.952Z,22.20
2022-11-04T13:10:58.682Z,22.30
2022-11-04T13:16:16.474Z,22.30
2022-11-04T13:21:24.465Z,22.20
2022-11-04T13:26:27.026Z,21.90
2022-11-04T13:31:38.009Z,21.70
2022-11-04T13:37:10.381Z,21.60
2022-11-04T13:42:40.308Z,21.30
2022-11-04T13:48:13.260Z,20.80
2022-11-04T13:53:19.688Z,20.30
2022-11-04T13:58:25.761Z,19.90
2022-11-04T14:04:05.922Z,19.70
2022-11-04T14:09:35.791Z,19.50
2022-11-04T14:14:39.452Z,19.30
2022-11-04T14:19:58.806Z,19.10
2022-11-04T14:25:23.517Z,19.00
2022-11-04T14:30:46.293Z,18.80
2022-11-04T14:35:49.441Z,18.60
2022-11-04T14:41:23.600Z,18.40
2022-11-04T14:46:29.422Z,18.20
2022-11-04T14:51:34.110Z,18.00
2022-11-04T14:56:37.676Z,17.90
2022-11-04T15:01:40.710Z,17.70
2022-11-04T15:06:58.470Z,17.50
2022-11-04T15:12:11.597Z,17.50
2022-11-04T15:17:23.022Z,17.20
2022-11-04T15:22:25.409Z,17.10
2022-11-04T15:27:30.013Z,16.90
2022-11-04T15:32:32.245Z,16.70
2022-11-04T15:37:36.822Z,16.50
2022-11-04T15:42:42.809Z,16.30
2022-11-04T15:47:45.068Z,16.10
2022-11-04T15:53:04.425Z,15.90
2022-11-04T15:58:15.221Z,15.70
2022-11-04T16:03:20.040Z,15.60
2022-11-04T16:08:27.421Z,15.40
2022-11-04T16:13:30.805Z,15.20
2022-11-04T16:18:37.283Z,15.10
2022-11-04T16:23:46.415Z,14.80
2022-11-04T16:28:54.812Z,14.60
2022-11-04T16:34:03.039Z,14.40
2022-11-04T16:39:07.750Z,14.20
2022-11-04T16:44:19.713Z,14.10
2022-11-04T16:49:22.240Z,13.90
2022-11-04T16:54:24.356Z,13.80
2022-11-04T16:59:27.982Z,13.70
2022-11-04T17:04:30.291Z,13.60
2022-11-04T17:09:32.424Z,13.50
2022-11-04T17:14:36.055Z,13.40
2022-11-04T17:19:38.231Z,13.30
2022-11-04T17:24:40.547Z,13.20
2022-11-04T17:29:44.284Z,13.00
2022-11-04T17:34:46.675Z,12.90
2022-11-04T17:39:48.849Z,12.90
2022-11-04T17:45:20.922Z,12.80
2022-11-04T17:50:23.513Z,12.70
2022-11-04T17:55:27.712Z,12.60
2022-11-04T18:00:31.621Z,12.50
2022-11-04T18:05:33.802Z,12.50
2022-11-04T18:10:36.034Z,12.40
2022-11-04T18:15:39.705Z,12.40
2022-11-04T18:20:42.082Z,12.30
2022-11-04T18:25:49.605Z,12.20
2022-11-04T18:30:57.073Z,12.10
2022-11-04T18:36:03.957Z,12.10
2022-11-04T18:41:06.279Z,12.00
2022-11-04T18:46:18.880Z,12.00
2022-11-04T18:51:22.932Z,11.90
2022-11-04T18:56:25.113Z,11.80
2022-11-04T19:01:31.135Z,11.80
2022-11-04T19:06:35.345Z,11.70
2022-11-04T19:11:40.425Z,11.60
2022-11-04T19:16:43.991Z,11.60
2022-11-04T19:21:46.131Z,11.50
2022-11-04T19:26:48.250Z,11.40
2022-11-04T19:31:52.139Z,11.30
2022-11-04T19:36:54.267Z,11.30
2022-11-04T19:41:56.527Z,11.10
2022-11-04T19:47:00.163Z,11.10
2022-11-04T19:52:02.639Z,11.00
2022-11-04T19:57:04.983Z,10.90
2022-11-04T20:02:10.500Z,10.80
2022-11-04T20:07:13.393Z,10.80
2022-11-04T20:12:15.539Z,10.70
2022-11-04T20:17:19.150Z,10.70
2022-11-04T20:22:21.322Z,10.70
2022-11-04T20:27:23.474Z,10.70
2022-11-04T20:32:26.982Z,10.70
2022-11-04T20:37:29.151Z,10.70
2022-11-04T20:42:31.416Z,10.70
2022-11-04T20:47:35.168Z,10.80
2022-11-04T20:52:40.219Z,10.80
2022-11-04T20:57:42.417Z,10.80
2022-11-04T21:02:46.026Z,10.90
2022-11-04T21:07:48.277Z,10.80
2022-11-04T21:12:52.165Z,10.70
2022-11-04T21:17:58.624Z,10.70
2022-11-04T21:23:01.466Z,10.60
2022-11-04T21:28:03.838Z,10.60
2022-11-04T21:33:07.509Z,10.50
2022-11-04T21:38:13.234Z,10.40
2022-11-04T21:43:15.378Z,10.40
2022-11-04T21:48:18.961Z,10.40
2022-11-04T21:53:24.826Z,10.30
2022-11-04T21:58:29.140Z,10.30
2022-11-04T22:03:37.934Z,10.20
2022-11-04T22:08:44.530Z,10.10
2022-11-04T22:13:50.824Z,10.10
2022-11-04T22:19:04.668Z,10.00
2022-11-04T22:24:12.881Z,10.00
2022-11-04T22:29:15.306Z,10.00
2022-11-04T22:34:18.868Z,9.90
2022-11-04T22:39:21.025Z,9.90
2022-11-04T22:44:23.160Z,9.80
2022-11-04T22:49:26.849Z,9.90
2022-11-04T22:54:29.005Z,9.90
2022-11-04T22:59:31.189Z,9.80
2022-11-04T23:04:34.911Z,9.80
2022-11-04T23:09:37.012Z,9.70
2022-11-04T23:14:39.168Z,9.70
2022-11-04T23:19:42.905Z,9.60
2022-11-04T23:24:45.012Z,9.50
2022-11-04T23:29:47.071Z,9.50
2022-11-04T23:34:50.561Z,9.50
2022-11-04T23:39:52.661Z,9.50
2022-11-04T23:44:56.173Z,9.60
2022-11-04T23:49:59.709Z,9.70
2022-11-04T23:55:01.862Z,9.70
